Time;durP1;ratioP1;P1;durP2;ratioP2;P2;SDS_P1;SDS_P2;PMS_P1;PMS_P2;Temp;Humidity;BMP_temperature;BMP_pressure;BME280_temperature;BME280_humidity;BME280_pressure;Samples;Min_cycle;Max_cycle;Signal;HPM_P1;HPM_P2
2023/05/26 00:00:35;;;;;;;6.25;4.80;;;;;;;25.00;52.08;100433.50;5074494;28;20051;-66
2023/05/26 00:03:04;;;;;;;5.95;5.05;;;;;;;24.99;52.32;100436.38;5074356;28;20045;-66
2023/05/26 00:05:35;;;;;;;6.35;4.60;;;;;;;24.98;52.22;100435.53;5074379;28;20051;-66
2023/05/26 00:08:05;;;;;;;5.68;4.40;;;;;;;24.97;52.11;100439.28;5074053;28;20071;-67
2023/05/26 00:10:33;;;;;;;6.22;4.78;;;;;;;24.96;52.31;100437.59;5074309;28;20045;-66
2023/05/26 00:13:01;;;;;;;6.35;4.82;;;;;;;24.95;52.06;100438.63;5073928;28;20090;-66
2023/05/26 00:15:29;;;;;;;7.03;4.60;;;;;;;24.95;52.35;100437.78;5074258;28;20110;-66
2023/05/26 00:17:58;;;;;;;5.72;4.47;;;;;;;24.93;52.25;100437.97;5073874;28;20075;-66
2023/05/26 00:20:26;;;;;;;7.90;4.88;;;;;;;24.92;52.13;100432.69;5073875;28;20489;-67
2023/05/26 00:22:57;;;;;;;5.10;4.22;;;;;;;24.91;52.36;100439.19;5073786;28;20128;-67
2023/05/26 00:25:27;;;;;;;5.47;4.30;;;;;;;24.90;52.14;100432.88;5073682;28;20044;-66
2023/05/26 00:27:55;;;;;;;6.57;4.38;;;;;;;24.89;52.31;100431.16;5073992;28;20128;-66
2023/05/26 00:30:23;;;;;;;5.93;4.80;;;;;;;24.87;52.41;100433.22;5073764;28;20056;-66
2023/05/26 00:32:51;;;;;;;6.38;4.43;;;;;;;24.87;52.25;100432.38;5073715;28;20041;-66
2023/05/26 00:35:20;;;;;;;5.50;4.55;;;;;;;24.85;52.44;100429.84;5073472;28;20472;-66
2023/05/26 00:37:48;;;;;;;6.38;4.75;;;;;;;24.84;52.31;100433.59;5073668;28;20143;-65
2023/05/26 00:40:16;;;;;;;5.72;4.70;;;;;;;24.84;52.17;100433.59;5073656;28;20105;-65
2023/05/26 00:42:46;;;;;;;5.80;4.68;;;;;;;24.82;52.37;100435.66;5073587;28;20052;-65
2023/05/26 00:45:14;;;;;;;6.15;4.82;;;;;;;24.82;52.36;100430.19;5073513;28;20090;-65
2023/05/26 00:47:42;;;;;;;6.05;4.72;;;;;;;24.80;52.43;100422.22;5073376;28;20044;-66
2023/05/26 00:50:12;;;;;;;5.65;4.57;;;;;;;24.79;52.59;100428.66;5073536;28;20048;-67
2023/05/26 00:52:42;;;;;;;6.03;4.60;;;;;;;24.78;52.62;100428.84;5073566;28;20052;-67
2023/05/26 00:55:10;;;;;;;6.25;5.10;;;;;;;24.77;52.59;100422.53;5073500;28;20127;-66
2023/05/26 00:57:40;;;;;;;6.63;5.38;;;;;;;24.77;52.74;100432.59;5073348;28;20048;-67
2023/05/26 01:00:11;;;;;;;6.10;4.90;;;;;;;24.75;52.41;100418.31;5073169;28;20049;-66
2023/05/26 01:02:39;;;;;;;7.07;5.00;;;;;;;24.74;52.74;100427.53;5072304;28;20064;-65
2023/05/26 01:05:09;;;;;;;6.55;4.60;;;;;;;24.75;52.73;100421.03;5073147;28;20048;-66
2023/05/26 01:07:37;;;;;;;5.93;4.85;;;;;;;24.73;52.71;100431.28;5073201;28;20087;-68
2023/05/26 01:10:06;;;;;;;6.45;4.75;;;;;;;24.71;52.88;100431.47;5073014;28;20048;-67
2023/05/26 01:12:39;;;;;;;6.07;4.65;;;;;;;24.70;52.65;100431.63;5073249;28;20048;-67
2023/05/26 01:15:13;;;;;;;5.95;4.63;;;;;;;24.70;52.76;100426.16;5074171;28;20094;-67
2023/05/26 01:17:48;;;;;;;5.82;4.70;;;;;;;24.69;52.90;100429.91;5074282;28;20053;-67
2023/05/26 01:20:26;;;;;;;6.25;4.90;;;;;;;24.68;53.01;100417.31;5073726;28;20044;-66
2023/05/26 01:23:33;;;;;;;5.57;4.47;;;;;;;24.66;52.67;100420.22;5073538;28;20405;-66
2023/05/26 01:26:33;;;;;;;6.60;5.25;;;;;;;24.66;52.98;100419.38;5074125;28;20076;-65
2023/05/26 01:29:09;;;;;;;6.15;5.10;;;;;;;24.63;52.94;100417.88;5052622;28;20076;-65
2023/05/26 01:31:39;;;;;;;6.53;4.78;;;;;;;24.63;52.89;100422.47;5072951;28;20495;-67
2023/05/26 01:34:07;;;;;;;6.15;5.00;;;;;;;24.62;52.92;100421.63;5073185;28;20044;-66
2023/05/26 01:36:36;;;;;;;5.68;4.70;;;;;;;24.62;53.04;100418.06;5073010;28;20048;-66
2023/05/26 01:39:05;;;;;;;6.22;4.85;;;;;;;24.61;52.98;100417.22;5072588;28;20434;-66
2023/05/26 01:41:42;;;;;;;6.15;5.00;;;;;;;24.60;52.86;100414.63;5072343;28;20044;-66
2023/05/26 01:44:17;;;;;;;6.68;4.95;;;;;;;24.59;52.77;100411.06;5072389;28;20045;-67
2023/05/26 01:46:48;;;;;;;7.05;4.95;;;;;;;24.57;53.07;100404.09;5072562;28;20052;-66
2023/05/26 01:49:17;;;;;;;6.63;5.20;;;;;;;24.57;52.98;100406.81;5072173;28;20063;-66
2023/05/26 01:51:50;;;;;;;5.55;4.50;;;;;;;24.55;53.07;100409.72;5072170;28;20478;-66
2023/05/26 01:54:22;;;;;;;6.97;4.57;;;;;;;24.54;52.86;100410.75;5072098;28;20131;-66
2023/05/26 01:56:52;;;;;;;6.13;4.60;;;;;;;24.53;53.00;100414.53;5071919;28;20406;-67
2023/05/26 01:59:23;;;;;;;5.57;4.65;;;;;;;24.52;52.91;100419.13;5072152;28;20052;-66
2023/05/26 02:01:51;;;;;;;6.60;4.90;;;;;;;24.51;53.03;100417.44;5072288;28;20051;-66
2023/05/26 02:04:19;;;;;;;6.68;5.05;;;;;;;24.50;52.76;100412.97;5072001;28;20414;-66
2023/05/26 02:06:47;;;;;;;5.53;4.45;;;;;;;24.49;53.10;100414.00;5072037;28;20597;-66
2023/05/26 02:09:15;;;;;;;6.00;5.05;;;;;;;24.48;53.04;100415.03;5071830;28;20041;-67
2023/05/26 02:11:44;;;;;;;5.43;4.60;;;;;;;24.48;52.93;100408.75;5071804;28;20049;-67
2023/05/26 02:14:12;;;;;;;6.68;4.85;;;;;;;24.46;53.00;100408.91;5071551;28;20385;-67
2023/05/26 02:16:43;;;;;;;5.07;4.55;;;;;;;24.46;53.02;100417.09;5071834;28;20044;-67
2023/05/26 02:19:12;;;;;;;5.85;4.95;;;;;;;24.43;53.01;100406.56;5071752;28;20188;-67
2023/05/26 02:21:41;;;;;;;6.60;5.10;;;;;;;24.43;53.17;100409.28;5071670;28;20473;-66
2023/05/26 02:24:09;;;;;;;6.38;4.90;;;;;;;24.43;52.82;100412.00;5071489;28;20497;-67
2023/05/26 02:26:37;;;;;;;6.47;4.82;;;;;;;24.42;53.04;100413.03;5071982;28;20045;-67
2023/05/26 02:29:05;;;;;;;6.03;5.10;;;;;;;24.40;53.16;100420.53;5071724;28;20040;-67
2023/05/26 02:31:34;;;;;;;6.88;5.00;;;;;;;24.39;53.49;100418.84;5071762;28;20121;-67
2023/05/26 02:34:11;;;;;;;6.40;4.90;;;;;;;24.40;53.19;100414.22;5071437;28;20535;-67
2023/05/26 02:36:39;;;;;;;6.25;5.03;;;;;;;24.38;53.17;100411.69;5071411;28;20052;-67
2023/05/26 02:39:08;;;;;;;6.10;4.80;;;;;;;24.36;53.36;100411.03;5071633;28;20048;-67
2023/05/26 02:41:36;;;;;;;6.07;4.72;;;;;;;24.37;53.49;100411.88;5071784;28;20044;-67
2023/05/26 02:44:04;;;;;;;5.97;4.85;;;;;;;24.35;53.07;100411.19;5071296;28;20512;-67
2023/05/26 02:46:32;;;;;;;6.00;4.63;;;;;;;24.34;53.41;100414.97;5071597;28;20041;-67
2023/05/26 02:49:01;;;;;;;6.57;4.90;;;;;;;24.33;53.14;100414.13;5071571;28;20045;-67
2023/05/26 02:51:30;;;;;;;5.45;4.78;;;;;;;24.32;53.46;100412.41;5071590;28;20377;-67
2023/05/26 02:53:58;;;;;;;6.00;4.88;;;;;;;24.31;53.17;100410.69;5071586;28;20116;-67
2023/05/26 02:56:27;;;;;;;6.93;4.97;;;;;;;24.31;53.37;100410.69;5071594;28;20055;-67
2023/05/26 02:58:55;;;;;;;5.68;4.72;;;;;;;24.30;53.10;100406.22;5071291;28;20045;-67
2023/05/26 03:01:24;;;;;;;6.00;4.90;;;;;;;24.28;53.27;100411.88;5071296;28;20490;-67
2023/05/26 03:03:53;;;;;;;5.53;4.60;;;;;;;24.28;53.41;100408.28;5070971;28;20413;-67
2023/05/26 03:06:22;;;;;;;6.50;5.13;;;;;;;24.28;53.06;100416.47;5071430;28;20045;-67
2023/05/26 03:08:51;;;;;;;5.72;4.70;;;;;;;24.26;53.27;100413.06;5071481;28;20072;-67
2023/05/26 03:11:21;;;;;;;6.78;4.80;;;;;;;24.26;53.51;100413.06;5071335;28;20048;-67
2023/05/26 03:13:49;;;;;;;6.63;4.85;;;;;;;24.25;53.41;100416.84;5071392;28;20052;-67
2023/05/26 03:16:19;;;;;;;6.25;4.88;;;;;;;24.24;53.25;100420.59;5071391;28;20048;-66
2023/05/26 03:18:47;;;;;;;6.50;4.70;;;;;;;24.22;53.21;100423.50;5069382;28;20140;-68
2023/05/26 03:21:16;;;;;;;6.10;4.55;;;;;;;24.21;53.44;100416.31;5060111;28;20060;-67
2023/05/26 03:24:07;;;;;;;6.05;4.78;;;;;;;24.22;53.44;100428.06;5051502;28;20098;-67
2023/05/26 03:26:36;;;;;;;5.93;5.00;;;;;;;24.20;53.37;100421.94;5052300;28;20498;-66
2023/05/26 03:29:04;;;;;;;6.10;4.70;;;;;;;24.20;53.42;100424.69;5055148;28;20358;-67
2023/05/26 03:31:32;;;;;;;7.53;5.13;;;;;;;24.19;53.36;100425.69;5055120;28;20049;-68
2023/05/26 03:34:00;;;;;;;6.10;4.53;;;;;;;24.18;53.40;100434.91;5055017;28;20081;-67
2023/05/26 03:36:31;;;;;;;6.90;5.15;;;;;;;24.17;53.27;100436.78;5054815;28;20099;-66
2023/05/26 03:38:59;;;;;;;6.93;4.93;;;;;;;24.17;53.41;100430.50;5054733;28;20056;-67
2023/05/26 03:41:29;;;;;;;6.72;4.85;;;;;;;24.17;53.35;100435.94;5061804;28;20048;-66
2023/05/26 03:43:57;;;;;;;7.70;5.15;;;;;;;24.15;53.62;100432.53;5074765;28;20047;-66
2023/05/26 03:46:25;;;;;;;7.70;5.70;;;;;;;24.16;53.47;100434.25;5074758;28;20060;-66
2023/05/26 03:48:54;;;;;;;6.68;5.20;;;;;;;24.14;53.60;100430.84;5074710;28;20121;-67
2023/05/26 03:51:22;;;;;;;6.75;5.43;;;;;;;24.14;53.46;100430.84;5074498;28;20064;-67
2023/05/26 03:53:50;;;;;;;7.07;5.22;;;;;;;24.13;53.39;100434.59;5074506;28;20044;-66
2023/05/26 03:56:18;;;;;;;6.75;5.40;;;;;;;24.13;53.26;100434.59;5074373;28;20128;-66
2023/05/26 03:58:48;;;;;;;6.93;5.07;;;;;;;24.12;53.45;100430.16;5074481;28;20044;-67
2023/05/26 04:01:19;;;;;;;6.65;4.78;;;;;;;24.11;53.54;100439.34;5074647;28;20060;-66
2023/05/26 04:03:47;;;;;;;7.72;4.97;;;;;;;24.10;53.65;100432.22;5074085;28;20507;-66
2023/05/26 04:06:20;;;;;;;6.10;5.10;;;;;;;24.09;53.76;100436.81;5063035;28;20041;-65
2023/05/26 04:08:48;;;;;;;6.53;4.93;;;;;;;24.10;53.44;100437.66;5070838;28;20119;-66
2023/05/26 04:11:17;;;;;;;6.20;5.30;;;;;;;24.09;53.74;100438.69;5074131;28;20485;-67
2023/05/26 04:13:46;;;;;;;5.78;4.80;;;;;;;24.08;53.76;100437.84;5074227;28;20051;-67
2023/05/26 04:16:16;;;;;;;6.10;4.85;;;;;;;24.09;53.57;100435.97;5073947;28;20055;-66
2023/05/26 04:18:46;;;;;;;7.05;5.45;;;;;;;24.07;53.74;100441.59;5074035;28;20041;-67
2023/05/26 04:21:14;;;;;;;5.85;4.82;;;;;;;24.07;53.62;100443.47;5074100;28;20053;-67
2023/05/26 04:23:42;;;;;;;5.88;5.03;;;;;;;24.06;53.55;100449.94;5074135;28;20044;-67
2023/05/26 04:26:10;;;;;;;6.18;4.72;;;;;;;24.07;53.54;100446.19;5073686;28;20481;-67
2023/05/26 04:28:38;;;;;;;6.50;4.80;;;;;;;24.05;53.82;100449.09;5073886;28;20079;-67
2023/05/26 04:31:08;;;;;;;7.28;5.00;;;;;;;24.05;53.57;100448.25;5073988;28;20148;-67
2023/05/26 04:33:40;;;;;;;6.07;5.10;;;;;;;24.05;53.52;100450.97;5073947;28;20071;-66
2023/05/26 04:36:09;;;;;;;6.03;4.82;;;;;;;24.04;53.47;100457.44;5073825;28;20132;-66
2023/05/26 04:38:41;;;;;;;6.45;5.22;;;;;;;24.04;53.63;100454.72;5072449;28;20450;-66
2023/05/26 04:41:09;;;;;;;6.35;5.28;;;;;;;24.04;53.64;100454.72;5073426;28;20059;-66
2023/05/26 04:43:38;;;;;;;6.43;5.00;;;;;;;24.02;53.80;100449.44;5073483;28;20416;-66
2023/05/26 04:46:06;;;;;;;6.18;5.10;;;;;;;24.02;53.60;100454.03;5073377;28;20049;-66
2023/05/26 04:48:36;;;;;;;6.18;4.93;;;;;;;24.01;53.68;100453.16;5073331;28;20048;-66
2023/05/26 04:51:07;;;;;;;5.93;4.95;;;;;;;24.02;53.62;100456.75;5073425;28;20056;-66
2023/05/26 04:53:36;;;;;;;7.18;5.35;;;;;;;24.01;53.90;100453.16;5073453;28;20445;-65
2023/05/26 04:56:05;;;;;;;5.55;4.65;;;;;;;24.01;53.61;100457.78;5073207;28;20056;-65
2023/05/26 04:58:33;;;;;;;6.18;4.50;;;;;;;24.00;53.60;100451.47;5073070;28;20052;-65
2023/05/26 05:01:04;;;;;;;6.25;4.85;;;;;;;24.01;53.82;100457.78;5072844;28;20080;-66
2023/05/26 05:03:34;;;;;;;5.95;4.95;;;;;;;23.99;53.60;100458.81;5073094;28;20044;-68
2023/05/26 05:06:02;;;;;;;5.90;5.07;;;;;;;23.98;53.91;100459.81;5072940;28;20055;-63
2023/05/26 05:08:32;;;;;;;6.55;5.10;;;;;;;23.99;53.86;100464.25;5073233;28;20063;-68
2023/05/26 05:11:00;;;;;;;5.97;4.82;;;;;;;23.99;53.77;100466.97;5073171;28;20053;-66
2023/05/26 05:13:28;;;;;;;5.97;4.75;;;;;;;23.99;53.97;100466.97;5072590;28;20049;-66
2023/05/26 05:15:56;;;;;;;6.35;5.03;;;;;;;23.99;53.75;100461.53;5072952;28;20052;-66
2023/05/26 05:18:24;;;;;;;7.50;5.53;;;;;;;23.98;53.91;100465.28;5072976;28;20053;-66
2023/05/26 05:20:53;;;;;;;6.22;5.20;;;;;;;23.98;53.97;100465.28;5072677;28;20131;-65
2023/05/26 05:23:21;;;;;;;6.43;5.15;;;;;;;23.99;53.98;100471.56;5072939;28;20041;-65
2023/05/26 05:25:50;;;;;;;6.88;5.03;;;;;;;23.98;53.78;100467.16;5072534;28;20101;-65
2023/05/26 05:28:21;;;;;;;6.82;5.15;;;;;;;23.98;53.89;100470.72;5072370;28;20049;-67
2023/05/26 05:30:49;;;;;;;6.18;5.10;;;;;;;23.97;53.83;100469.03;5072131;28;20055;-66
2023/05/26 05:33:19;;;;;;;7.20;5.45;;;;;;;23.98;53.81;100473.44;5072416;28;20052;-66
2023/05/26 05:35:47;;;;;;;8.23;4.80;;;;;;;23.98;54.08;100472.59;5072190;28;20080;-67
2023/05/26 05:38:16;;;;;;;6.72;5.07;;;;;;;23.98;53.91;100470.72;5072139;28;20137;-64
2023/05/26 05:40:44;;;;;;;6.70;5.05;;;;;;;23.97;53.98;100474.47;5071923;28;20056;-65
2023/05/26 05:43:14;;;;;;;7.93;5.25;;;;;;;23.96;54.10;100475.50;5069300;28;20083;-64
2023/05/26 05:45:42;;;;;;;6.43;5.10;;;;;;;23.97;53.93;100470.91;5065417;28;20103;-67
2023/05/26 05:48:10;;;;;;;7.60;5.22;;;;;;;23.97;53.82;100479.94;5051755;28;20512;-67
2023/05/26 05:50:38;;;;;;;9.35;6.05;;;;;;;23.98;54.05;100476.19;5051417;28;20047;-69
2023/05/26 05:53:06;;;;;;;6.82;5.20;;;;;;;23.97;54.12;100469.03;5051808;28;20049;-69
2023/05/26 05:55:35;;;;;;;7.32;5.80;;;;;;;23.97;54.34;100477.22;5051610;28;20106;-67
2023/05/26 05:58:03;;;;;;;8.18;5.82;;;;;;;23.96;54.37;100475.50;5051928;28;20045;-68
2023/05/26 06:00:32;;;;;;;6.68;5.47;;;;;;;23.96;54.24;100483.69;5051700;28;20059;-70
2023/05/26 06:03:00;;;;;;;7.03;5.35;;;;;;;23.95;54.36;100487.44;5052037;28;20044;-68
2023/05/26 06:05:29;;;;;;;8.70;5.60;;;;;;;23.94;54.40;100488.47;5051572;28;20476;-66
2023/05/26 06:07:57;;;;;;;8.48;6.00;;;;;;;23.95;54.39;100486.59;5051574;28;20481;-67
2023/05/26 06:10:25;;;;;;;8.10;5.72;;;;;;;23.95;54.34;100490.16;5051751;28;20048;-67
2023/05/26 06:12:53;;;;;;;7.30;5.63;;;;;;;23.94;54.28;100496.63;5051504;28;20045;-64
2023/05/26 06:15:21;;;;;;;7.28;6.00;;;;;;;23.95;54.33;100498.31;5051473;28;20064;-64
2023/05/26 06:17:51;;;;;;;7.40;5.50;;;;;;;23.94;54.41;100499.34;5051714;28;20049;-65
2023/05/26 06:20:20;;;;;;;9.43;5.55;;;;;;;23.94;54.35;100491.19;5051433;28;20045;-63
2023/05/26 06:22:48;;;;;;;7.03;5.70;;;;;;;23.94;54.34;100490.34;5057599;28;20064;-67
2023/05/26 06:25:16;;;;;;;7.53;5.80;;;;;;;23.95;54.31;100487.44;5071606;28;20060;-67
2023/05/26 06:27:44;;;;;;;7.22;5.57;;;;;;;23.94;54.40;100496.63;5071335;28;21223;-67
2023/05/26 06:30:13;;;;;;;7.20;5.43;;;;;;;23.94;54.76;100491.19;5071546;28;20040;-67
2023/05/26 06:32:41;;;;;;;7.68;5.72;;;;;;;23.95;54.42;100502.94;5071325;28;20139;-68
2023/05/26 06:35:12;;;;;;;7.65;5.60;;;;;;;23.95;54.55;100502.94;5071278;28;20052;-68
2023/05/26 06:37:40;;;;;;;8.05;6.07;;;;;;;23.96;54.50;100493.72;5071546;28;20045;-67
2023/05/26 06:40:09;;;;;;;8.20;6.10;;;;;;;23.95;54.49;100495.59;5071425;28;20056;-67
2023/05/26 06:42:37;;;;;;;10.27;6.07;;;;;;;23.95;54.47;100487.44;5071435;28;20433;-68
2023/05/26 06:45:06;;;;;;;6.85;5.82;;;;;;;23.95;54.35;100492.88;5071092;28;20482;-67
2023/05/26 06:47:34;;;;;;;7.63;5.60;;;;;;;23.95;54.36;100498.31;5071176;28;20056;-67
2023/05/26 06:50:03;;;;;;;7.20;5.90;;;;;;;23.96;54.33;100504.63;5071441;28;20068;-67
2023/05/26 06:52:32;;;;;;;7.85;5.68;;;;;;;23.95;54.32;100506.50;5071386;28;20048;-66
2023/05/26 06:55:00;;;;;;;7.78;5.57;;;;;;;23.95;54.63;100509.22;5071025;28;20044;-66
2023/05/26 06:57:28;;;;;;;8.55;5.93;;;;;;;23.95;54.48;100511.94;5070837;28;20516;-68
2023/05/26 06:59:57;;;;;;;7.72;6.07;;;;;;;23.96;54.76;100510.94;5069929;28;20047;-66
2023/05/26 07:02:25;;;;;;;9.10;5.60;;;;;;;23.97;54.73;100506.31;5073424;28;20106;-66
2023/05/26 07:04:53;;;;;;;6.82;5.30;;;;;;;23.97;54.53;100509.91;5075584;28;20045;-66
2023/05/26 07:07:21;;;;;;;7.93;5.63;;;;;;;23.96;54.53;100510.94;5075289;28;20048;-68
2023/05/26 07:09:51;;;;;;;8.82;6.07;;;;;;;23.99;54.60;100512.44;5075257;28;20128;-68
2023/05/26 07:12:20;;;;;;;7.20;5.55;;;;;;;23.97;54.32;100511.78;5074981;28;20143;-67
2023/05/26 07:14:48;;;;;;;7.53;5.75;;;;;;;24.00;54.51;100516.88;5074952;28;20040;-68
2023/05/26 07:17:16;;;;;;;8.80;6.10;;;;;;;23.99;54.59;100510.56;5075192;28;20378;-67
2023/05/26 07:19:45;;;;;;;8.07;6.00;;;;;;;23.99;54.58;100513.28;5075156;28;20048;-66
2023/05/26 07:22:13;;;;;;;7.75;5.90;;;;;;;23.99;54.45;100510.56;5075011;28;20098;-67
2023/05/26 07:24:41;;;;;;;9.00;5.70;;;;;;;24.02;54.68;100511.25;5074993;28;20136;-66
2023/05/26 07:27:11;;;;;;;9.10;5.90;;;;;;;24.01;54.76;100515.00;5074928;28;20044;-68
2023/05/26 07:29:39;;;;;;;7.32;5.72;;;;;;;24.02;54.47;100513.97;5074801;28;20481;-68
2023/05/26 07:32:07;;;;;;;6.85;5.40;;;;;;;24.04;54.56;100514.66;5074866;28;20359;-68
2023/05/26 07:34:36;;;;;;;7.68;5.70;;;;;;;24.03;54.47;100515.66;5075086;28;20431;-68
2023/05/26 07:37:04;;;;;;;8.32;5.95;;;;;;;24.04;54.54;100520.13;5074704;28;20049;-68
2023/05/26 07:39:32;;;;;;;7.28;5.65;;;;;;;24.04;54.34;100510.06;5074406;28;20051;-68
2023/05/26 07:42:01;;;;;;;7.72;5.65;;;;;;;24.05;54.34;100510.91;5074288;28;20060;-67
2023/05/26 07:44:30;;;;;;;8.55;6.15;;;;;;;24.05;54.40;100509.03;5074265;28;20501;-67
2023/05/26 07:46:58;;;;;;;7.72;5.88;;;;;;;24.06;54.37;100516.19;5074176;28;20113;-67
2023/05/26 07:49:26;;;;;;;8.15;5.75;;;;;;;24.06;54.41;100512.63;5074313;28;20066;-67
2023/05/26 07:51:55;;;;;;;7.75;5.70;;;;;;;24.07;54.48;100508.84;5074304;28;20049;-67
2023/05/26 07:54:23;;;;;;;7.43;5.78;;;;;;;24.08;54.83;100513.28;5074192;28;20044;-67
2023/05/26 07:56:51;;;;;;;7.75;5.85;;;;;;;24.09;54.53;100514.97;5074433;28;20058;-67
2023/05/26 07:59:19;;;;;;;6.75;5.28;;;;;;;24.09;54.66;100514.97;5074431;28;20051;-67
2023/05/26 08:01:49;;;;;;;7.35;5.63;;;;;;;24.10;54.48;100511.22;5074207;28;20052;-67
2023/05/26 08:04:17;;;;;;;7.82;5.72;;;;;;;24.10;54.70;100517.53;5074266;28;20413;-67
2023/05/26 08:06:45;;;;;;;8.32;5.80;;;;;;;24.12;54.57;100509.16;5073944;28;20041;-67
2023/05/26 08:09:13;;;;;;;6.97;5.40;;;;;;;24.12;54.59;100520.06;5073910;28;20405;-66
2023/05/26 08:11:41;;;;;;;6.20;5.13;;;;;;;24.13;54.63;100516.34;5073818;28;20056;-67
2023/05/26 08:14:10;;;;;;;6.55;5.47;;;;;;;24.14;54.56;100523.50;5073836;28;20135;-66
2023/05/26 08:16:39;;;;;;;9.32;5.95;;;;;;;24.14;54.71;100523.50;5073906;28;20422;-67
2023/05/26 08:19:08;;;;;;;7.00;5.57;;;;;;;24.15;54.26;100514.31;5073912;28;20044;-67
2023/05/26 08:21:36;;;;;;;8.07;5.90;;;;;;;24.16;54.56;100516.00;5073555;28;20167;-67
2023/05/26 08:24:05;;;;;;;6.85;5.60;;;;;;;24.16;54.74;100513.28;5073880;28;20125;-67
2023/05/26 08:26:33;;;;;;;7.53;5.40;;;;;;;24.17;54.52;100517.69;5073933;28;20053;-67
2023/05/26 08:29:01;;;;;;;6.88;5.65;;;;;;;24.17;54.65;100512.25;5073718;28;20071;-67
2023/05/26 08:31:29;;;;;;;7.03;5.50;;;;;;;24.19;54.56;100512.91;5073695;28;20424;-67
2023/05/26 08:33:58;;;;;;;7.45;5.85;;;;;;;24.20;54.59;100512.72;5073509;28;20040;-67
2023/05/26 08:36:27;;;;;;;7.93;5.80;;;;;;;24.21;54.47;100513.59;5073483;28;20048;-67
2023/05/26 08:38:55;;;;;;;6.68;5.80;;;;;;;24.22;54.76;100515.28;5073757;28;20482;-67
2023/05/26 08:41:25;;;;;;;7.47;5.55;;;;;;;24.22;54.45;100509.81;5073335;28;20052;-68
2023/05/26 08:43:57;;;;;;;6.97;5.50;;;;;;;24.23;54.49;100511.56;5073495;28;20083;-67
2023/05/26 08:46:37;;;;;;;7.47;5.88;;;;;;;24.24;54.70;100515.97;5073317;28;20048;-67
2023/05/26 08:49:06;;;;;;;7.25;5.82;;;;;;;24.24;54.71;100511.38;5073313;28;20045;-68
2023/05/26 08:51:40;;;;;;;7.38;5.43;;;;;;;24.26;54.44;100513.94;5073435;28;20048;-67
2023/05/26 08:54:08;;;;;;;7.60;5.55;;;;;;;24.26;54.78;100520.22;5073218;28;20057;-67
2023/05/26 08:56:37;;;;;;;8.10;6.05;;;;;;;24.28;54.71;100518.16;5073435;28;20470;-68
2023/05/26 08:59:08;;;;;;;8.27;6.22;;;;;;;24.28;54.39;100510.00;5072938;28;20047;-67
2023/05/26 09:01:37;;;;;;;6.63;5.70;;;;;;;24.29;54.53;100499.94;5072880;28;20080;-68
2023/05/26 09:04:05;;;;;;;7.68;5.43;;;;;;;24.31;54.38;100507.94;5073057;28;20387;-68
2023/05/26 09:06:36;;;;;;;7.32;5.90;;;;;;;24.32;54.69;100505.09;5073043;28;20052;-68
2023/05/26 09:09:05;;;;;;;7.47;5.70;;;;;;;24.34;54.73;100510.38;5072895;28;20041;-67
2023/05/26 09:11:40;;;;;;;7.20;5.80;;;;;;;24.35;54.55;100503.88;5072720;28;20500;-67
2023/05/26 09:14:08;;;;;;;7.07;5.65;;;;;;;24.36;54.68;100505.59;5072959;28;20143;-67
2023/05/26 09:16:38;;;;;;;7.22;5.35;;;;;;;24.37;54.64;100499.09;5073024;28;20048;-67
2023/05/26 09:19:12;;;;;;;6.85;5.53;;;;;;;24.38;54.45;100498.91;5072495;28;20565;-67
2023/05/26 09:21:46;;;;;;;7.60;6.15;;;;;;;24.40;54.76;100505.03;5072533;28;20045;-67
2023/05/26 09:24:16;;;;;;;7.38;5.90;;;;;;;24.42;54.60;100504.88;5071772;28;20055;-67
2023/05/26 09:26:46;;;;;;;7.30;5.80;;;;;;;24.44;54.46;100503.69;5072762;28;20048;-68
2023/05/26 09:29:16;;;;;;;8.65;6.30;;;;;;;24.45;54.35;100505.38;5072790;28;20044;-67
2023/05/26 09:31:46;;;;;;;7.65;5.85;;;;;;;24.46;54.51;100501.63;5072535;28;20049;-67
2023/05/26 09:34:15;;;;;;;8.02;6.35;;;;;;;24.50;54.28;100507.56;5072482;28;20583;-67
2023/05/26 09:36:45;;;;;;;6.93;5.82;;;;;;;24.49;54.31;100506.72;5072213;28;20049;-67
2023/05/26 09:39:14;;;;;;;8.57;6.35;;;;;;;24.52;54.18;100505.53;5072189;28;20402;-67
2023/05/26 09:41:44;;;;;;;8.05;6.30;;;;;;;24.53;54.12;100499.91;5072330;28;20045;-66
2023/05/26 09:44:13;;;;;;;8.90;6.18;;;;;;;24.55;54.09;100500.56;5072287;28;20052;-67
2023/05/26 09:46:43;;;;;;;8.80;6.30;;;;;;;24.58;54.10;100498.50;5072009;28;20055;-67
2023/05/26 09:49:13;;;;;;;8.43;6.45;;;;;;;24.59;53.70;100492.88;5071900;28;20075;-66
2023/05/26 09:51:43;;;;;;;8.15;6.38;;;;;;;24.61;53.78;100495.41;5071938;28;20464;-67
2023/05/26 09:54:17;;;;;;;8.35;6.20;;;;;;;24.63;53.69;100486.06;5071948;28;20048;-66
2023/05/26 09:56:52;;;;;;;9.00;6.50;;;;;;;24.65;53.72;100497.63;5071970;28;20135;-67
2023/05/26 09:59:21;;;;;;;7.72;6.05;;;;;;;24.67;54.04;100489.25;5072005;28;20059;-67
2023/05/26 10:01:52;;;;;;;7.90;5.88;;;;;;;24.69;54.07;100490.78;5071717;28;20077;-66
2023/05/26 10:04:20;;;;;;;8.77;6.00;;;;;;;24.71;54.21;100486.00;5071804;28;20049;-68
2023/05/26 10:06:52;;;;;;;7.38;5.93;;;;;;;24.73;54.28;100483.94;5071867;28;20139;-67
2023/05/26 10:09:23;;;;;;;7.70;5.88;;;;;;;24.76;54.04;100485.47;5071958;28;20419;-68
2023/05/26 10:11:55;;;;;;;7.38;5.95;;;;;;;24.77;54.37;100476.25;5071417;28;20063;-68
2023/05/26 10:14:23;;;;;;;8.57;5.97;;;;;;;24.78;54.42;100475.22;5071431;28;20040;-68
2023/05/26 10:16:52;;;;;;;7.45;5.97;;;;;;;24.81;54.08;100472.16;5071336;28;20078;-66
2023/05/26 10:19:21;;;;;;;8.57;6.40;;;;;;;24.83;54.48;100478.28;5071516;28;20113;-67
2023/05/26 10:21:56;;;;;;;8.15;6.22;;;;;;;24.85;54.23;100478.94;5071495;28;20051;-67
2023/05/26 10:24:32;;;;;;;8.27;6.55;;;;;;;24.86;54.35;100477.91;5071434;28;20064;-67
2023/05/26 10:27:05;;;;;;;7.90;5.85;;;;;;;24.89;54.06;100469.34;5071253;28;20131;-67
2023/05/26 10:29:44;;;;;;;7.75;6.13;;;;;;;24.91;54.32;100475.50;5071678;28;20129;-67
2023/05/26 10:32:42;;;;;;;8.30;6.05;;;;;;;24.94;54.04;100477.88;5071376;28;20060;-67
2023/05/26 10:35:24;;;;;;;7.78;6.40;;;;;;;24.97;54.09;100474.75;5071233;28;20087;-67
2023/05/26 10:37:58;;;;;;;8.18;6.63;;;;;;;25.02;53.86;100469.66;5071374;28;20048;-66
2023/05/26 10:40:30;;;;;;;8.45;6.72;;;;;;;25.03;53.89;100479.53;5071155;28;20085;-67
2023/05/26 10:43:03;;;;;;;7.75;6.43;;;;;;;25.07;53.64;100474.56;5071129;28;20048;-66
2023/05/26 10:45:33;;;;;;;8.50;6.43;;;;;;;25.08;53.74;100468.91;5071139;28;20051;-68
2023/05/26 10:48:08;;;;;;;8.73;6.53;;;;;;;25.11;53.46;100463.13;5071005;28;20440;-67
2023/05/26 10:51:07;;;;;;;8.48;6.78;;;;;;;25.15;53.57;100470.94;5071064;28;20045;-66
2023/05/26 10:53:37;;;;;;;7.78;6.35;;;;;;;25.17;53.08;100466.97;5068051;28;20061;-66
2023/05/26 10:56:08;;;;;;;8.23;6.20;;;;;;;25.19;53.55;100469.53;5070784;28;20086;-67
2023/05/26 10:58:38;;;;;;;8.95;6.15;;;;;;;25.21;53.36;100467.50;5071086;28;20049;-67
2023/05/26 11:01:09;;;;;;;7.38;6.10;;;;;;;25.22;53.45;100459.13;5071197;28;20150;-67
2023/05/26 11:03:40;;;;;;;7.90;6.20;;;;;;;25.25;53.62;100452.44;5071070;28;20044;-67
2023/05/26 11:06:11;;;;;;;7.88;6.60;;;;;;;25.27;53.41;100459.41;5071203;28;20045;-67
2023/05/26 11:08:41;;;;;;;7.28;5.80;;;;;;;25.30;53.52;100458.22;5070954;28;20073;-67
2023/05/26 11:11:12;;;;;;;7.85;5.82;;;;;;;25.35;53.60;100456.63;5070936;28;20139;-67
2023/05/26 11:13:46;;;;;;;7.40;5.88;;;;;;;25.38;53.60;100455.38;5070690;28;20052;-67
2023/05/26 11:16:19;;;;;;;8.05;5.60;;;;;;;25.41;53.56;100455.03;5071013;28;20455;-66
2023/05/26 11:18:52;;;;;;;7.75;5.80;;;;;;;25.44;53.71;100457.41;5070855;28;20045;-67
2023/05/26 11:21:25;;;;;;;8.02;6.10;;;;;;;25.47;53.77;100457.03;5070708;28;20055;-66
2023/05/26 11:23:55;;;;;;;7.28;6.10;;;;;;;25.53;53.72;100458.19;5070697;28;20053;-67
2023/05/26 11:26:27;;;;;;;7.45;6.10;;;;;;;25.57;53.48;100452.16;5070867;28;20045;-66
2023/05/26 11:28:56;;;;;;;7.53;5.87;;;;;;;25.60;53.16;100461.88;5070939;28;20044;-67
2023/05/26 11:31:26;;;;;;;7.32;6.20;;;;;;;25.64;53.21;100452.25;5070844;28;20118;-67
2023/05/26 11:33:56;;;;;;;7.55;6.40;;;;;;;25.66;53.53;100451.03;5070563;28;20466;-66
2023/05/26 11:36:25;;;;;;;7.72;6.18;;;;;;;25.69;53.53;100437.03;5071011;28;20086;-67